Boca Raton, FL (33487)

1:20 PM EST on January 27, 2015 (GMT -0500)
Bel Lido | Change Station
CLOSE
Current Station
Personal Weather Station
Location: Highland Beach, FL
Elevation: 10 ft
Nearby Weather Stations

Elev 10 ft 26.40 °N, 80.07 °W | Updated 11 seconds ago

Clear
Clear
62.6 °F
Feels Like 62.6 °F
N
9.7
Wind Variable Wind from West
Gusts 9.7 mph

Today
High -- | Low -- °F
--% Chance of Precip.
Yesterday
High -- | Low -- °F
Precip. -- in
7:07 AM 5:59 PM
First Quarter, 56% visible
Pressure 30.03 in
Visibility 8.0 miles
Clouds Clear
Dew Point 27 °F
Humidity 26%
Rainfall 0.00 in
Snow Depth Not available.
UV 8 out of 12
Pollen 8.50 out of 12
Air Quality Not available.
Flu Activity Not available.
METAR KPMP 271753Z 28013G19KT 8SM CLR 19/M01 A3002 RMK AO2 SLP168 T01941011 10194 20117 58014

More Conditions Fewer Conditions

Pressure 30.03 in
Visibility 8.0 miles
Clouds Clear
Dew Point 27 °F
Humidity 26%
Rainfall 0.00 in
Snow Depth Not available.
UV 8 out of 12
Pollen 8.50 out of 12
Air Quality Not available.
Flu Activity Not available.
METAR KPMP 271753Z 28013G19KT 8SM CLR 19/M01 A3002 RMK AO2 SLP168 T01941011 10194 20117 58014

More Conditions Fewer Conditions

10-Day Weather Forecast

Almanac

Astronomy

Jan. 27, 2015 Rise Set
Actual Time
Civil Twilight
Nautical Twilight
Astronomical Twilight
Moon
Length of Visible Light
Length of Day
Tomorrow will be .
, % of the Moon is Illuminated

Today's Extremes

State Highs State Lows

Community

WunderPhotos

Upload Photos

1,790,753 photos uploaded!

WunderBlogs® & News

Nearby

Air Quality

  Air Quality AQ Index Pollutant
Not available.

Snow Depth

Station Depth Elevation

Earthquake Activity

City Distance Mag. Time & Date
Minimum magnitude displayed is 2.5.

Coastal Water Temperatures

Place Temperature

Nearby Weather Stations